Time;durP1;ratioP1;P1;durP2;ratioP2;P2;SDS_P1;SDS_P2;PMS_P1;PMS_P2;Temp;Humidity;BMP_temperature;BMP_pressure;BME280_temperature;BME280_humidity;BME280_pressure;Samples;Min_cycle;Max_cycle;Signal;HPM_P1;HPM_P2
2022/12/13 00:00:53;;;;;;;14.87;12.27;;;-0.80;1.00;;;;;;6236396;28;20915;-52
2022/12/13 00:03:59;;;;;;;13.80;11.63;;;-0.50;1.00;;;;;;6257490;28;20256;-52
2022/12/13 00:07:02;;;;;;;14.23;12.73;;;-0.60;1.00;;;;;;6240997;28;20294;-52
2022/12/13 00:10:07;;;;;;;14.67;13.00;;;-0.50;1.00;;;;;;6256921;28;20245;-52
2022/12/13 00:13:10;;;;;;;16.43;12.87;;;-0.80;1.00;;;;;;6257513;28;20253;-52
2022/12/13 00:16:15;;;;;;;15.03;12.93;;;-0.70;1.00;;;;;;6260183;28;20405;-51
2022/12/13 00:19:20;;;;;;;14.33;12.70;;;-0.70;1.00;;;;;;6260732;28;20254;-51
2022/12/13 00:22:23;;;;;;;18.03;13.67;;;-0.50;1.00;;;;;;6262356;28;20827;-52
2022/12/13 00:25:26;;;;;;;15.07;12.37;;;-0.70;1.00;;;;;;6261957;28;20229;-52
2022/12/13 00:28:29;;;;;;;17.90;13.00;;;-0.50;1.00;;;;;;6242078;28;20255;-51
2022/12/13 00:31:32;;;;;;;20.53;13.77;;;-0.50;1.00;;;;;;6246589;28;20242;-51
2022/12/13 00:34:56;;;;;;;16.80;13.67;;;-0.70;1.00;;;;;;6261710;28;20315;-52
2022/12/13 00:37:59;;;;;;;16.17;13.60;;;-0.50;1.00;;;;;;6233861;28;20234;-50
2022/12/13 00:41:10;;;;;;;16.43;13.83;;;-0.40;1.00;;;;;;6237250;28;20230;-52
2022/12/13 00:44:14;;;;;;;14.87;13.40;;;-0.40;1.00;;;;;;6219189;28;20246;-52
2022/12/13 00:47:19;;;;;;;15.20;13.43;;;-0.40;1.00;;;;;;6212362;28;20273;-52
2022/12/13 00:50:23;;;;;;;16.47;14.17;;;-0.60;1.00;;;;;;6214808;28;20242;-52
2022/12/13 00:53:26;;;;;;;21.40;14.03;;;-0.60;1.00;;;;;;6212352;28;20407;-51
2022/12/13 00:56:31;;;;;;;15.70;13.33;;;-0.60;1.00;;;;;;6212964;28;20243;-52
2022/12/13 00:59:34;;;;;;;17.63;13.83;;;-0.40;1.00;;;;;;6211681;28;20746;-51
2022/12/13 01:02:37;;;;;;;16.83;14.13;;;-0.50;1.00;;;;;;6233139;28;20634;-54
2022/12/13 01:05:41;;;;;;;16.93;13.37;;;-0.40;1.00;;;;;;6236157;28;20262;-52
2022/12/13 01:09:07;;;;;;;15.03;12.70;;;-0.50;1.00;;;;;;6237005;28;20306;-51
2022/12/13 01:12:11;;;;;;;17.40;13.47;;;-0.40;1.00;;;;;;6209984;28;20238;-52
2022/12/13 01:15:14;;;;;;;15.40;13.37;;;-0.50;1.00;;;;;;6227922;28;20268;-51
2022/12/13 01:18:18;;;;;;;15.70;13.63;;;-0.50;1.00;;;;;;6236351;28;20238;-52
2022/12/13 01:21:22;;;;;;;14.87;12.40;;;-0.80;1.00;;;;;;6218300;28;20231;-52
2022/12/13 01:24:25;;;;;;;15.60;12.63;;;-0.60;1.00;;;;;;6211451;28;20458;-52
2022/12/13 01:27:28;;;;;;;14.47;12.17;;;-0.60;1.00;;;;;;6210856;28;20724;-51
2022/12/13 01:30:31;;;;;;;14.60;12.03;;;-0.70;1.00;;;;;;6211542;28;20250;-51
2022/12/13 01:33:35;;;;;;;15.43;12.50;;;-0.50;1.00;;;;;;6236177;28;20485;-52
2022/12/13 01:36:40;;;;;;;13.57;11.93;;;-0.50;1.00;;;;;;6222298;28;20231;-52
2022/12/13 01:39:43;;;;;;;15.40;12.27;;;-0.50;1.00;;;;;;6232030;28;20596;-53
2022/12/13 01:42:46;;;;;;;15.27;12.73;;;-0.90;1.00;;;;;;6207861;28;20322;-51
2022/12/13 01:45:49;;;;;;;14.60;12.33;;;-0.50;1.00;;;;;;6236360;28;20404;-51
2022/12/13 01:49:00;;;;;;;15.73;12.63;;;-0.50;1.00;;;;;;6224864;28;20451;-51
2022/12/13 01:52:09;;;;;;;14.87;12.30;;;-0.40;1.00;;;;;;6211202;28;20246;-51
2022/12/13 01:55:14;;;;;;;18.17;13.30;;;-0.40;1.00;;;;;;6211308;28;20235;-51
2022/12/13 01:58:18;;;;;;;17.07;13.30;;;-0.50;1.00;;;;;;6216276;28;20719;-51
2022/12/13 02:01:22;;;;;;;17.03;13.40;;;-0.60;1.00;;;;;;6236478;28;20265;-53
2022/12/13 02:04:31;;;;;;;17.57;13.77;;;-0.50;1.00;;;;;;6235101;28;20314;-50
2022/12/13 02:07:38;;;;;;;18.23;14.00;;;-0.40;1.00;;;;;;6228455;28;20652;-51
2022/12/13 02:10:42;;;;;;;17.63;14.10;;;-0.70;1.00;;;;;;6223313;28;20239;-51
2022/12/13 02:13:45;;;;;;;14.87;12.97;;;-0.40;1.00;;;;;;6222221;28;20723;-52
2022/12/13 02:17:00;;;;;;;18.73;13.17;;;-0.40;1.00;;;;;;6214074;28;20743;-51
2022/12/13 02:20:40;;;;;;;15.43;13.37;;;-0.50;1.00;;;;;;6212701;28;20246;-52
2022/12/13 02:24:28;;;;;;;19.60;14.70;;;-0.40;1.00;;;;;;6211001;28;20247;-52
2022/12/13 02:27:43;;;;;;;16.93;12.73;;;-0.40;1.00;;;;;;6211057;28;20251;-52
2022/12/13 02:30:53;;;;;;;15.63;12.13;;;-0.60;1.00;;;;;;6207367;28;20238;-50
2022/12/13 02:34:02;;;;;;;17.23;13.37;;;-0.30;1.00;;;;;;6230332;28;20703;-53
2022/12/13 02:37:10;;;;;;;18.30;13.13;;;-0.50;1.00;;;;;;6235252;28;20281;-51
2022/12/13 02:40:26;;;;;;;15.87;13.53;;;-0.50;1.00;;;;;;6227059;28;20246;-52
2022/12/13 02:43:34;;;;;;;19.30;14.10;;;-0.70;1.00;;;;;;6232247;28;20241;-51
2022/12/13 02:46:42;;;;;;;18.43;14.53;;;-0.70;1.00;;;;;;6235573;28;20238;-52
2022/12/13 02:49:49;;;;;;;21.23;14.50;;;-0.80;1.00;;;;;;6234623;28;20555;-52
2022/12/13 02:52:54;;;;;;;20.03;14.70;;;-0.50;1.00;;;;;;6218154;28;20242;-52
2022/12/13 02:55:57;;;;;;;21.17;14.77;;;-0.60;1.00;;;;;;6209606;28;20728;-51
2022/12/13 02:59:08;;;;;;;18.60;14.77;;;-0.70;1.00;;;;;;6210505;28;20705;-52
2022/12/13 03:02:21;;;;;;;16.63;14.20;;;-0.40;1.00;;;;;;6219451;28;20243;-51
2022/12/13 03:09:27;;;;;;;19.20;15.13;;;-0.40;1.00;;;;;;6234700;28;20712;-51
2022/12/13 03:16:00;;;;;;;19.27;15.13;;;-0.60;1.00;;;;;;6221501;28;20241;-52
2022/12/13 03:19:06;;;;;;;21.50;14.77;;;-0.60;1.00;;;;;;6209173;28;20240;-51
2022/12/13 03:22:09;;;;;;;20.90;15.67;;;-0.40;1.00;;;;;;6210503;28;20751;-52
2022/12/13 03:25:13;;;;;;;20.93;15.37;;;-0.50;1.00;;;;;;6210376;28;20577;-51
2022/12/13 03:28:33;;;;;;;18.93;15.30;;;-0.80;1.00;;;;;;6210186;28;20522;-51
2022/12/13 03:31:36;;;;;;;18.73;14.57;;;-0.40;1.00;;;;;;6219229;28;20234;-52
2022/12/13 03:34:41;;;;;;;22.93;14.53;;;-0.70;1.00;;;;;;6232357;28;20230;-53
2022/12/13 03:37:45;;;;;;;20.23;15.77;;;-0.60;1.00;;;;;;6233515;28;20245;-52
2022/12/13 03:40:49;;;;;;;20.00;15.43;;;-0.60;1.00;;;;;;6221025;28;20272;-51
2022/12/13 03:43:52;;;;;;;22.53;15.47;;;-0.50;1.00;;;;;;6209566;28;20243;-51
2022/12/13 03:46:55;;;;;;;18.70;14.90;;;-0.50;1.00;;;;;;6209089;28;20235;-52
2022/12/13 03:50:04;;;;;;;19.37;15.87;;;-0.40;1.00;;;;;;6210005;28;20318;-52
2022/12/13 03:53:27;;;;;;;19.63;14.27;;;-0.40;1.00;;;;;;6213498;28;20615;-51
2022/12/13 03:56:36;;;;;;;19.07;14.57;;;-0.40;1.00;;;;;;6213697;28;20330;-52
2022/12/13 03:59:39;;;;;;;20.00;14.73;;;-0.40;1.00;;;;;;6238042;28;20384;-52
2022/12/13 04:02:42;;;;;;;20.07;15.83;;;-0.60;1.00;;;;;;6237859;28;20297;-52
2022/12/13 04:05:46;;;;;;;17.83;13.87;;;-0.60;1.00;;;;;;6238387;28;20238;-51
2022/12/13 04:08:49;;;;;;;19.30;15.03;;;-0.40;1.00;;;;;;6233882;28;20249;-52
2022/12/13 04:15:13;;;;;;;17.10;14.30;;;-0.60;1.00;;;;;;6230016;28;20238;-52
2022/12/13 04:18:17;;;;;;;18.20;14.87;;;-0.30;1.00;;;;;;6228836;28;20247;-52
2022/12/13 04:21:22;;;;;;;21.83;14.60;;;-0.60;1.00;;;;;;6213699;28;20236;-52
2022/12/13 04:24:25;;;;;;;18.47;14.53;;;-0.60;1.00;;;;;;6213337;28;20640;-52
2022/12/13 04:27:33;;;;;;;18.50;13.80;;;-0.70;1.00;;;;;;6212884;28;20254;-51
2022/12/13 04:30:37;;;;;;;20.07;14.97;;;-0.50;1.00;;;;;;6222945;28;20389;-52
2022/12/13 04:33:39;;;;;;;15.80;14.07;;;-0.50;1.00;;;;;;6213081;28;20817;-51
2022/12/13 04:36:44;;;;;;;16.63;14.57;;;-0.70;1.00;;;;;;6224479;28;20226;-48
2022/12/13 04:39:47;;;;;;;18.73;14.30;;;-0.40;1.00;;;;;;6235791;28;20227;-52
2022/12/13 04:42:50;;;;;;;19.00;15.13;;;-0.30;1.00;;;;;;6236287;28;20373;-52
2022/12/13 04:45:57;;;;;;;16.47;14.53;;;-0.30;1.00;;;;;;6230508;28;20235;-51
2022/12/13 04:49:00;;;;;;;21.80;14.47;;;-0.30;1.00;;;;;;6234171;28;20444;-52
2022/12/13 04:52:05;;;;;;;16.50;14.53;;;-0.50;1.00;;;;;;6236246;28;20626;-52
2022/12/13 04:55:08;;;;;;;18.10;14.60;;;-0.40;1.00;;;;;;6229353;28;20235;-51
2022/12/13 04:58:11;;;;;;;20.40;14.93;;;-0.40;1.00;;;;;;6228818;28;20239;-51
2022/12/13 05:01:14;;;;;;;19.43;14.93;;;-0.40;1.00;;;;;;6257581;28;20234;-52
2022/12/13 05:04:18;;;;;;;15.87;14.10;;;-0.50;1.00;;;;;;6259336;28;20328;-51
2022/12/13 05:07:22;;;;;;;20.30;15.27;;;-0.30;1.00;;;;;;6257704;28;20614;-52
2022/12/13 05:10:25;;;;;;;20.03;15.07;;;-0.70;1.00;;;;;;6253340;28;20609;-51
2022/12/13 05:13:39;;;;;;;19.07;14.67;;;-0.80;1.00;;;;;;6236100;28;20700;-47
2022/12/13 05:16:42;;;;;;;18.43;14.13;;;-0.40;1.00;;;;;;6246128;28;20605;-50
2022/12/13 05:19:45;;;;;;;16.97;13.77;;;-0.70;1.00;;;;;;6257986;28;20657;-51
2022/12/13 05:22:50;;;;;;;18.80;13.73;;;-0.30;1.00;;;;;;6260274;28;20245;-52
2022/12/13 05:25:53;;;;;;;18.63;14.70;;;-0.70;1.00;;;;;;6257178;28;20246;-50
2022/12/13 05:28:56;;;;;;;17.83;13.73;;;-0.30;1.00;;;;;;6259342;28;20237;-52
2022/12/13 05:31:59;;;;;;;16.40;14.53;;;-0.30;1.00;;;;;;6260307;28;20804;-51
2022/12/13 05:35:03;;;;;;;15.60;13.80;;;-0.40;1.00;;;;;;6251351;28;20233;-51
2022/12/13 05:38:07;;;;;;;15.23;13.63;;;-0.40;1.00;;;;;;6259790;28;20735;-52
2022/12/13 05:41:13;;;;;;;15.50;13.30;;;-0.40;1.00;;;;;;6260550;28;20741;-52
2022/12/13 05:44:16;;;;;;;16.37;13.90;;;-0.40;1.00;;;;;;6259348;28;20607;-52
2022/12/13 05:47:19;;;;;;;18.30;13.60;;;-0.40;1.00;;;;;;6251234;28;20396;-52
2022/12/13 05:50:22;;;;;;;19.73;14.47;;;-0.50;1.00;;;;;;6258931;28;20234;-51
2022/12/13 05:53:27;;;;;;;14.53;12.80;;;-0.30;1.00;;;;;;6259381;28;20784;-56
2022/12/13 05:56:32;;;;;;;15.37;13.33;;;-0.40;1.00;;;;;;6259781;28;20372;-52
2022/12/13 05:59:35;;;;;;;15.63;12.90;;;-0.60;1.00;;;;;;6257315;28;20238;-53
2022/12/13 06:02:39;;;;;;;15.97;13.43;;;-0.50;1.00;;;;;;6260393;28;20230;-51
2022/12/13 06:05:43;;;;;;;16.37;13.70;;;-0.70;1.00;;;;;;6260474;28;20241;-52
2022/12/13 06:08:47;;;;;;;18.00;13.63;;;-0.80;1.00;;;;;;6255963;28;20329;-52
2022/12/13 06:11:50;;;;;;;17.17;12.80;;;-0.50;1.00;;;;;;6258129;28;20233;-53
2022/12/13 06:15:04;;;;;;;15.13;12.67;;;-0.40;1.00;;;;;;6256408;28;20227;-52
2022/12/13 06:18:24;;;;;;;16.53;13.30;;;-0.40;1.00;;;;;;6257480;28;20569;-51
2022/12/13 06:21:26;;;;;;;23.00;14.40;;;-0.40;1.00;;;;;;6259651;28;20244;-52
2022/12/13 06:24:31;;;;;;;16.43;13.80;;;-0.30;1.00;;;;;;6260950;28;20264;-47
2022/12/13 06:27:34;;;;;;;17.70;14.07;;;-0.60;1.00;;;;;;6267344;28;20436;-51
2022/12/13 06:30:37;;;;;;;15.83;13.30;;;-0.40;1.00;;;;;;6264874;28;20241;-51
2022/12/13 06:33:45;;;;;;;15.57;12.97;;;-0.50;1.00;;;;;;6259850;28;20264;-52
2022/12/13 06:36:48;;;;;;;14.93;13.13;;;-0.70;1.00;;;;;;6256522;28;20238;-51
2022/12/13 06:39:52;;;;;;;18.53;15.37;;;-0.70;1.00;;;;;;6267892;28;20234;-51
2022/12/13 06:42:55;;;;;;;18.80;13.50;;;-0.70;1.00;;;;;;6256438;28;20226;-53
2022/12/13 06:45:58;;;;;;;16.60;13.83;;;-0.40;1.00;;;;;;6263142;28;20293;-52
2022/12/13 06:49:01;;;;;;;17.43;14.93;;;-0.40;1.00;;;;;;6263743;28;20234;-51
2022/12/13 06:52:04;;;;;;;17.90;14.27;;;-0.50;1.00;;;;;;6270482;28;20760;-52
2022/12/13 06:55:09;;;;;;;21.17;15.30;;;-0.30;1.00;;;;;;6261064;28;20530;-52
2022/12/13 06:58:12;;;;;;;20.47;14.30;;;-0.50;1.00;;;;;;6254010;28;20703;-51
2022/12/13 07:01:18;;;;;;;19.40;14.87;;;-0.80;1.00;;;;;;6265119;28;20238;-51
2022/12/13 07:04:26;;;;;;;21.03;15.17;;;-0.70;1.00;;;;;;6257446;28;20295;-52
2022/12/13 07:07:33;;;;;;;20.03;15.43;;;-0.70;1.00;;;;;;6262312;28;20249;-51
2022/12/13 07:10:39;;;;;;;19.27;14.87;;;-0.60;1.00;;;;;;6267266;28;20229;-54
2022/12/13 07:13:42;;;;;;;17.83;14.50;;;-0.50;1.00;;;;;;6256079;28;20611;-53
2022/12/13 07:16:45;;;;;;;21.00;15.63;;;-0.40;1.00;;;;;;6255326;28;20606;-52
2022/12/13 07:19:48;;;;;;;20.67;15.50;;;-0.60;1.00;;;;;;6258386;28;20242;-51
2022/12/13 07:22:55;;;;;;;18.03;14.73;;;-0.80;1.00;;;;;;6259630;28;20236;-51
2022/12/13 07:26:02;;;;;;;21.40;15.67;;;-0.60;1.00;;;;;;6272133;28;20237;-51
2022/12/13 07:29:05;;;;;;;21.37;15.13;;;-0.70;1.00;;;;;;6269235;28;20245;-51
2022/12/13 07:32:08;;;;;;;22.77;15.60;;;-0.60;1.00;;;;;;6262333;28;20234;-52
2022/12/13 07:35:11;;;;;;;23.97;16.60;;;-0.60;1.00;;;;;;6258154;28;20279;-51
2022/12/13 07:38:14;;;;;;;22.50;15.47;;;-0.60;1.00;;;;;;6268901;28;20725;-51
2022/12/13 07:41:18;;;;;;;24.07;17.03;;;-0.60;1.00;;;;;;6262932;28;20257;-51
2022/12/13 07:44:26;;;;;;;21.07;16.13;;;-0.60;1.00;;;;;;6231831;28;20245;-49
2022/12/13 07:47:30;;;;;;;19.70;15.93;;;-0.60;1.00;;;;;;6236996;28;20325;-51
2022/12/13 07:50:33;;;;;;;21.63;17.37;;;-0.60;1.00;;;;;;6235446;28;20238;-50
2022/12/13 07:53:40;;;;;;;22.63;16.00;;;-0.60;1.00;;;;;;6238003;28;20242;-52
2022/12/13 07:56:44;;;;;;;33.97;18.13;;;-0.60;1.00;;;;;;6236755;28;20630;-52
2022/12/13 07:59:48;;;;;;;29.97;18.40;;;-0.70;1.00;;;;;;6256451;28;20238;-52
2022/12/13 08:02:50;;;;;;;25.07;18.60;;;-0.80;1.00;;;;;;6260741;28;20229;-52
2022/12/13 08:05:59;;;;;;;26.97;18.63;;;-0.70;1.00;;;;;;6262170;28;20468;-52
2022/12/13 08:09:04;;;;;;;27.77;18.43;;;-0.60;1.00;;;;;;6262813;28;20263;-52
2022/12/13 08:12:09;;;;;;;28.90;18.53;;;-1.00;1.00;;;;;;6258297;28;20249;-52
2022/12/13 08:15:12;;;;;;;25.07;17.93;;;-0.60;1.00;;;;;;6261147;28;20244;-52
2022/12/13 08:18:16;;;;;;;26.37;18.97;;;-0.90;1.00;;;;;;6261405;28;20238;-51
2022/12/13 08:21:19;;;;;;;28.00;18.90;;;-0.80;1.00;;;;;;6260437;28;20256;-52
2022/12/13 08:24:43;;;;;;;27.63;18.37;;;-0.70;1.00;;;;;;6257155;28;20234;-51
2022/12/13 08:27:47;;;;;;;26.60;17.97;;;-0.60;1.00;;;;;;6253547;28;20276;-51
2022/12/13 08:30:50;;;;;;;24.93;18.53;;;-0.80;1.00;;;;;;6259656;28;20281;-52
2022/12/13 08:33:53;;;;;;;31.83;19.23;;;-0.60;1.00;;;;;;6257459;28;20665;-52
2022/12/13 08:36:56;;;;;;;24.13;17.93;;;-0.70;1.00;;;;;;6255272;28;20377;-51
2022/12/13 08:40:06;;;;;;;24.20;18.07;;;-0.70;1.00;;;;;;6242621;28;20234;-50
2022/12/13 08:43:11;;;;;;;30.70;18.07;;;-0.40;1.00;;;;;;6236510;28;20635;-53
2022/12/13 08:46:14;;;;;;;23.20;16.17;;;-0.80;1.00;;;;;;6236665;28;20483;-52
2022/12/13 08:49:17;;;;;;;23.67;17.40;;;-0.70;1.00;;;;;;6244093;28;20695;-52
2022/12/13 08:52:21;;;;;;;23.40;16.50;;;-0.50;1.00;;;;;;6240642;28;20711;-53
2022/12/13 08:55:24;;;;;;;24.53;18.13;;;-0.70;1.00;;;;;;6235726;28;20226;-53
2022/12/13 08:58:35;;;;;;;22.50;16.77;;;-0.80;1.00;;;;;;6243861;28;20243;-52
2022/12/13 09:01:38;;;;;;;25.53;17.30;;;-0.50;1.00;;;;;;6238904;28;20238;-52
2022/12/13 09:04:41;;;;;;;25.23;18.10;;;-0.50;1.00;;;;;;6232566;28;20242;-52
2022/12/13 09:07:44;;;;;;;23.30;17.07;;;-0.30;1.00;;;;;;6236736;28;20641;-52
2022/12/13 09:10:56;;;;;;;25.20;17.87;;;-0.40;1.00;;;;;;6237688;28;20248;-52
2022/12/13 09:14:03;;;;;;;22.83;17.20;;;-0.50;1.00;;;;;;6233438;28;20228;-50
2022/12/13 09:17:06;;;;;;;27.43;18.10;;;-0.20;1.00;;;;;;6235669;28;20311;-52
2022/12/13 09:20:17;;;;;;;26.07;17.97;;;-0.30;1.00;;;;;;6242450;28;20243;-52
2022/12/13 09:23:31;;;;;;;28.30;17.37;;;-0.10;1.00;;;;;;6231374;28;20242;-52
2022/12/13 09:26:37;;;;;;;22.53;17.97;;;-0.30;1.00;;;;;;6236869;28;20318;-52
2022/12/13 09:29:42;;;;;;;24.23;16.37;;;-0.20;1.00;;;;;;6232920;28;20245;-52
2022/12/13 09:32:48;;;;;;;25.03;16.67;;;-0.30;1.00;;;;;;6235601;28;20258;-51
2022/12/13 09:35:52;;;;;;;22.03;16.43;;;-0.10;1.00;;;;;;6227425;28;20692;-51
2022/12/13 09:38:57;;;;;;;25.90;16.17;;;-0.20;1.00;;;;;;6233862;28;20242;-52
2022/12/13 09:42:00;;;;;;;19.13;15.57;;;-0.20;1.00;;;;;;6235643;28;20234;-52
2022/12/13 09:45:14;;;;;;;25.50;17.10;;;-0.30;1.00;;;;;;6227804;28;20591;-52
2022/12/13 09:48:34;;;;;;;22.97;15.83;;;-0.30;1.00;;;;;;6229128;28;20718;-51
2022/12/13 09:51:37;;;;;;;22.83;16.27;;;-0.40;1.00;;;;;;6235475;28;20242;-52
2022/12/13 09:54:53;;;;;;;21.60;17.40;;;-0.50;1.00;;;;;;6232534;28;20246;-51
2022/12/13 09:57:58;;;;;;;22.33;16.70;;;-0.20;1.00;;;;;;6234955;28;20227;-52
2022/12/13 10:01:05;;;;;;;23.83;16.90;;;-0.40;1.00;;;;;;6233122;28;20702;-51
2022/12/13 10:04:13;;;;;;;22.40;16.50;;;-0.30;1.00;;;;;;6232329;28;20258;-51
2022/12/13 10:07:19;;;;;;;25.10;17.50;;;-0.10;1.00;;;;;;6234696;28;20249;-52
2022/12/13 10:10:23;;;;;;;24.90;17.40;;;-0.30;1.00;;;;;;6242374;28;20617;-55
2022/12/13 10:13:37;;;;;;;22.47;17.67;;;-0.30;1.00;;;;;;6241703;28;20239;-51
2022/12/13 10:16:46;;;;;;;24.50;18.03;;;-0.20;1.00;;;;;;6255104;28;20237;-51
2022/12/13 10:19:51;;;;;;;23.43;16.90;;;-0.20;1.00;;;;;;6241773;28;20238;-59
2022/12/13 10:22:54;;;;;;;22.97;17.30;;;-0.30;1.00;;;;;;6243347;28;20700;-52
2022/12/13 10:26:17;;;;;;;26.23;16.00;;;-0.20;1.00;;;;;;6240156;28;20429;-52
2022/12/13 10:29:27;;;;;;;22.63;16.80;;;-0.40;1.00;;;;;;6233964;28;20243;-51
2022/12/13 10:32:42;;;;;;;22.90;16.83;;;-0.20;1.00;;;;;;6236079;28;20349;-54
2022/12/13 10:36:02;;;;;;;27.23;16.87;;;-0.20;1.00;;;;;;6225871;28;20242;-52
2022/12/13 10:39:05;;;;;;;20.70;15.47;;;-0.20;1.00;;;;;;6253862;28;20237;-52
2022/12/13 10:42:13;;;;;;;19.63;15.27;;;-0.30;1.00;;;;;;6259665;28;20735;-52
2022/12/13 10:45:26;;;;;;;22.57;15.43;;;-0.10;1.00;;;;;;6259404;28;20238;-52
2022/12/13 10:48:35;;;;;;;19.37;14.97;;;0.00;1.00;;;;;;6257932;28;20249;-52
2022/12/13 10:51:41;;;;;;;19.83;14.70;;;-0.10;1.00;;;;;;6257968;28;20511;-51
2022/12/13 10:54:44;;;;;;;16.43;14.20;;;0.00;1.00;;;;;;6254499;28;20233;-51
2022/12/13 10:57:52;;;;;;;17.37;14.37;;;-0.10;1.00;;;;;;6253726;28;20375;-52
2022/12/13 11:01:09;;;;;;;18.87;14.33;;;-0.20;1.00;;;;;;6257190;28;20356;-51
2022/12/13 11:04:26;;;;;;;19.40;14.20;;;-0.20;1.00;;;;;;6257195;28;20607;-52
2022/12/13 11:07:32;;;;;;;19.13;13.80;;;0.00;1.00;;;;;;6257980;28;20329;-52
2022/12/13 11:10:35;;;;;;;15.20;12.93;;;-0.10;1.00;;;;;;6259938;28;20391;-53
2022/12/13 11:13:44;;;;;;;15.80;13.63;;;0.10;1.00;;;;;;6255280;28;20337;-51
2022/12/13 11:16:51;;;;;;;17.00;13.80;;;0.10;1.00;;;;;;6258842;28;20236;-53
2022/12/13 11:20:00;;;;;;;20.83;14.10;;;0.00;1.00;;;;;;6255617;28;21867;-52
2022/12/13 11:23:06;;;;;;;19.87;14.53;;;0.10;1.00;;;;;;6257584;28;20234;-51
2022/12/13 11:26:15;;;;;;;19.73;15.00;;;0.10;1.00;;;;;;6259387;28;20240;-51
2022/12/13 11:29:46;;;;;;;20.33;15.00;;;0.20;1.00;;;;;;6257000;28;20250;-51
2022/12/13 11:33:18;;;;;;;21.47;15.30;;;0.20;1.00;;;;;;6262872;28;20222;-56
2022/12/13 11:36:33;;;;;;;18.13;14.83;;;0.30;1.00;;;;;;6226575;28;20565;-51
2022/12/13 11:39:42;;;;;;;17.37;14.30;;;0.30;1.00;;;;;;6232499;28;20649;-52
2022/12/13 11:42:51;;;;;;;15.30;13.00;;;0.30;1.00;;;;;;6254069;28;20226;-52
2022/12/13 11:45:57;;;;;;;19.83;14.70;;;0.20;1.00;;;;;;6257222;28;20277;-52
2022/12/13 11:49:04;;;;;;;19.17;14.47;;;0.20;1.00;;;;;;6257984;28;20245;-51
2022/12/13 11:52:16;;;;;;;17.33;14.43;;;0.20;1.00;;;;;;6257511;28;20287;-53
2022/12/13 11:55:24;;;;;;;15.87;12.87;;;0.20;1.00;;;;;;6240091;28;20594;-50
2022/12/13 11:58:33;;;;;;;18.47;14.17;;;0.30;1.00;;;;;;6250102;28;20249;-52
2022/12/13 12:02:03;;;;;;;16.77;13.43;;;-0.10;1.00;;;;;;6256991;28;20229;-55
2022/12/13 12:05:24;;;;;;;17.40;13.97;;;0.20;1.00;;;;;;6255624;28;20306;-52
2022/12/13 12:08:35;;;;;;;19.63;14.00;;;0.30;1.00;;;;;;6252636;28;20242;-53
2022/12/13 12:11:45;;;;;;;18.07;14.67;;;0.10;1.00;;;;;;6257786;28;20246;-51
2022/12/13 12:14:54;;;;;;;17.23;13.97;;;-0.10;1.00;;;;;;6258094;28;20816;-52
2022/12/13 12:17:57;;;;;;;17.73;14.80;;;0.00;1.00;;;;;;6265094;28;20242;-54
2022/12/13 12:21:13;;;;;;;19.30;14.60;;;0.10;1.00;;;;;;6259891;28;20238;-52
2022/12/13 12:24:27;;;;;;;16.30;14.33;;;0.20;1.00;;;;;;6262845;28;20237;-52
2022/12/13 12:27:38;;;;;;;18.23;14.20;;;0.30;1.00;;;;;;6261621;28;20607;-52
2022/12/13 12:30:50;;;;;;;16.50;14.00;;;0.00;1.00;;;;;;6263078;28;20702;-51
2022/12/13 12:34:04;;;;;;;18.87;14.67;;;0.10;1.00;;;;;;6255943;28;20773;-52
2022/12/13 12:37:15;;;;;;;18.90;15.03;;;0.20;1.00;;;;;;6259430;28;20790;-52
2022/12/13 12:40:41;;;;;;;25.03;15.57;;;0.30;1.00;;;;;;6261511;28;20642;-52
2022/12/13 12:44:13;;;;;;;19.77;14.43;;;0.00;1.00;;;;;;6260988;28;20298;-52
2022/12/13 12:47:30;;;;;;;19.27;14.10;;;0.20;1.00;;;;;;6258049;28;20754;-52
2022/12/13 12:51:02;;;;;;;18.43;14.57;;;0.30;1.00;;;;;;6258383;28;20227;-52
2022/12/13 12:54:21;;;;;;;17.47;14.80;;;0.40;1.00;;;;;;6259353;28;20226;-53
2022/12/13 12:57:39;;;;;;;18.30;14.30;;;0.20;1.00;;;;;;6256155;28;20280;-52
2022/12/13 13:00:52;;;;;;;21.47;14.37;;;0.20;1.00;;;;;;6261020;28;20230;-53
2022/12/13 13:03:57;;;;;;;18.20;13.97;;;0.10;1.00;;;;;;6258253;28;20714;-51
2022/12/13 13:07:10;;;;;;;20.20;13.93;;;-0.10;1.00;;;;;;6258267;28;20241;-51
2022/12/13 13:10:26;;;;;;;16.17;12.77;;;0.10;1.00;;;;;;6251063;28;20681;-52
2022/12/13 13:13:45;;;;;;;17.33;14.27;;;-0.10;1.00;;;;;;6241355;28;20329;-52
2022/12/13 13:16:49;;;;;;;16.73;13.77;;;0.00;1.00;;;;;;6231381;28;20245;-52
2022/12/13 13:19:54;;;;;;;17.07;13.13;;;0.00;1.00;;;;;;6235777;28;20233;-52
2022/12/13 13:23:14;;;;;;;15.83;13.07;;;0.20;1.00;;;;;;6239217;28;20665;-53
2022/12/13 13:26:39;;;;;;;14.53;12.73;;;0.10;1.00;;;;;;6238265;28;20595;-52
2022/12/13 13:29:43;;;;;;;16.30;12.60;;;0.00;1.00;;;;;;6242978;28;20238;-52
2022/12/13 13:32:47;;;;;;;18.50;13.07;;;-0.20;1.00;;;;;;6234895;28;20288;-51
2022/12/13 13:35:52;;;;;;;17.70;13.77;;;-0.20;1.00;;;;;;6224924;28;20241;-52
2022/12/13 13:38:55;;;;;;;15.00;13.10;;;0.20;1.00;;;;;;6231976;28;21468;-52
2022/12/13 13:42:16;;;;;;;18.00;14.30;;;0.10;1.00;;;;;;6236218;28;20347;-50
2022/12/13 13:45:22;;;;;;;14.73;12.53;;;-0.10;1.00;;;;;;6230879;28;20515;-51
2022/12/13 13:48:53;;;;;;;19.87;13.13;;;0.00;1.00;;;;;;6227401;28;20723;-55
2022/12/13 13:52:17;;;;;;;17.77;13.23;;;0.10;1.00;;;;;;6239071;28;20227;-51
2022/12/13 13:55:48;;;;;;;18.40;13.50;;;-0.10;1.00;;;;;;6227408;28;20599;-53
2022/12/13 13:59:24;;;;;;;16.63;13.40;;;0.00;1.00;;;;;;6235339;28;20238;-52
2022/12/13 14:03:03;;;;;;;16.23;13.10;;;0.00;1.00;;;;;;6230220;28;20712;-51
2022/12/13 14:06:56;;;;;;;17.40;14.30;;;0.20;1.00;;;;;;6247782;28;20804;-51
2022/12/13 14:10:23;;;;;;;15.80;12.80;;;0.30;1.00;;;;;;6241253;28;20719;-54
2022/12/13 14:13:59;;;;;;;18.30;13.13;;;0.00;1.00;;;;;;6226814;28;20707;-52
2022/12/13 14:17:37;;;;;;;15.93;12.80;;;0.20;1.00;;;;;;6253385;28;20482;-52
2022/12/13 14:20:48;;;;;;;14.30;12.43;;;0.20;1.00;;;;;;6256686;28;20650;-52
2022/12/13 14:24:04;;;;;;;21.10;13.80;;;0.30;1.00;;;;;;6230003;28;20249;-51
2022/12/13 14:27:19;;;;;;;18.97;14.00;;;0.00;1.00;;;;;;6227700;28;20247;-51
2022/12/13 14:30:24;;;;;;;20.10;13.97;;;-0.10;1.00;;;;;;6234218;28;20246;-53
2022/12/13 14:33:31;;;;;;;14.87;13.27;;;0.10;1.00;;;;;;6228835;28;20239;-51
2022/12/13 14:36:37;;;;;;;17.23;14.13;;;0.20;1.00;;;;;;6231075;28;20234;-53
2022/12/13 14:39:44;;;;;;;15.77;13.63;;;0.30;1.00;;;;;;6234175;28;20243;-52
2022/12/13 14:42:53;;;;;;;19.53;13.57;;;-0.10;1.00;;;;;;6229632;28;20234;-52
2022/12/13 14:45:58;;;;;;;17.07;13.47;;;0.00;1.00;;;;;;6233564;28;20231;-53
2022/12/13 14:49:01;;;;;;;17.23;13.47;;;0.10;1.00;;;;;;6233791;28;20238;-52
2022/12/13 14:52:18;;;;;;;21.50;15.27;;;0.10;1.00;;;;;;6228778;28;20321;-51
2022/12/13 14:55:35;;;;;;;21.13;14.73;;;0.00;1.00;;;;;;6226879;28;20556;-52
2022/12/13 14:58:38;;;;;;;16.97;14.07;;;0.20;1.00;;;;;;6222940;28;20244;-52
2022/12/13 15:01:42;;;;;;;17.80;13.77;;;0.30;1.00;;;;;;6233978;28;20529;-51
2022/12/13 15:04:45;;;;;;;21.53;16.00;;;0.10;1.00;;;;;;6233227;28;20442;-52
2022/12/13 15:07:48;;;;;;;19.53;15.30;;;0.00;1.00;;;;;;6232955;28;20227;-52
2022/12/13 15:10:55;;;;;;;23.30;15.83;;;0.00;1.00;;;;;;6234625;28;20238;-52
2022/12/13 15:13:58;;;;;;;22.63;15.53;;;0.00;1.00;;;;;;6231043;28;20231;-51
2022/12/13 15:17:02;;;;;;;20.53;15.00;;;0.00;1.00;;;;;;6233770;28;20738;-52
2022/12/13 15:20:23;;;;;;;24.67;15.93;;;0.00;1.00;;;;;;6231396;28;20245;-55
2022/12/13 15:23:31;;;;;;;22.33;15.63;;;-0.20;1.00;;;;;;6264455;28;20258;-52
2022/12/13 15:26:36;;;;;;;22.80;16.07;;;-0.10;1.00;;;;;;6234221;28;20238;-52
2022/12/13 15:29:40;;;;;;;22.93;15.97;;;-0.10;1.00;;;;;;6226252;28;20235;-51
2022/12/13 15:33:01;;;;;;;24.30;17.63;;;-0.10;1.00;;;;;;6230181;28;20242;-51
2022/12/13 15:36:08;;;;;;;23.17;16.47;;;-0.20;1.00;;;;;;6229780;28;20237;-54
2022/12/13 15:39:12;;;;;;;23.93;15.30;;;-0.20;1.00;;;;;;6236568;28;20597;-52
2022/12/13 15:42:23;;;;;;;24.73;16.57;;;-0.30;1.00;;;;;;6234569;28;20309;-52
2022/12/13 15:45:27;;;;;;;24.33;16.47;;;-0.40;1.00;;;;;;6234454;28;20242;-51
2022/12/13 15:48:42;;;;;;;25.40;16.63;;;-0.10;1.00;;;;;;6236582;28;20293;-51
2022/12/13 15:51:58;;;;;;;26.93;18.27;;;-0.10;1.00;;;;;;6236121;28;20219;-52
2022/12/13 15:55:22;;;;;;;23.60;16.73;;;-0.20;1.00;;;;;;6237179;28;20237;-52
2022/12/13 15:58:35;;;;;;;28.67;19.37;;;-0.30;1.00;;;;;;6237184;28;20727;-51
2022/12/13 16:01:38;;;;;;;22.47;18.37;;;-0.20;1.00;;;;;;6236743;28;20250;-55
2022/12/13 16:04:41;;;;;;;23.30;17.23;;;-0.30;1.00;;;;;;6255889;28;20712;-52
2022/12/13 16:07:49;;;;;;;21.70;16.97;;;-0.40;1.00;;;;;;6272092;28;20230;-51
2022/12/13 16:10:59;;;;;;;23.17;16.93;;;-0.20;1.00;;;;;;6266082;28;20309;-52
2022/12/13 16:14:41;;;;;;;24.37;17.30;;;-0.50;1.00;;;;;;6262796;28;20234;-53
2022/12/13 16:17:53;;;;;;;23.00;16.87;;;-0.40;1.00;;;;;;6242963;28;20316;-49
2022/12/13 16:21:01;;;;;;;17.57;14.80;;;-0.60;1.00;;;;;;6236688;28;20388;-52